Amherst, New Hampshire
Current Conditions -  °F | °C
As of 10:51 PM on Thursday 18 Dec 2014 (Local Time) from KASH Reporting Station
Overcast Overcast  
Wind Chill: -2°   Ceiling: 2800
Heat Index:   Visibility: 10mi
Dew Point: -3°   Wind: 9mph
Humidity: 67%   Direction: 300°WNW
Pressure: 29.86"   Gusts: NA
Location:  42.86°N, 71.63°W
Report Text: KASH 190351Z AUTO 30008KT 10SM OVC028 02/M03 A2986 RMK AO2 T00221033 400550022 SLP366
Loading
Personal Weather Stations






























Interactive Weather Map New forecast layout! Learn more

10-Day Weather Forecast

Advertisements
Track Severe Weather on mobile